Archival Weather

Snohomish County (Paine Fld)

Everett, Washington (KPAE)

Report from: Friday, November 10, 2023 2:53 AM PST
Current time: Monday, June 17, 2024 1:23 AM PDT

Current weather – Weather history – Daily summaries
Weather forecast

Temperature8.3°C (46.9°F)
Wind chill7.2°C (44.9°F)
Dew point5.6°C (42.1°F)
Winds 4 kts (2.1 m/s, 4.6 mph) South (170°)
Visibility10 mi. (16.1 km)
Clouds Ceiling: Broken clouds 1,200 ft. (366 m)
Overcast 1,700 ft. (518 m)
Altimeter30.09 in.Hg (1019 mB)
Relative humidity83 %
Density altitude-867 ft. (-264 m)
Sea-level pressure101.9 kPa (1019 mB, 30.09 in.Hg)
Remarks Fully automated report
Automated weather observing station with precipitation discriminator
Flight conditions Marginal Visual Meteorological Conditions
Raw dataKPAE 101053Z AUTO 17004KT 10SM BKN012 OVC017 08/06 A3009 RMK AO2 SLP190 T00830056
An error has occurred. This application may no longer respond until reloaded. Reload 🗙